Time;durP1;ratioP1;P1;durP2;ratioP2;P2;SDS_P1;SDS_P2;PMS_P1;PMS_P2;Temp;Humidity;BMP_temperature;BMP_pressure;BME280_temperature;BME280_humidity;BME280_pressure;Samples;Min_cycle;Max_cycle;Signal;HPM_P1;HPM_P2
2023/10/24 00:00:13;;;;;;;3.15;1.10;;;15.30;99.90;;;;;;5068856;28;20309;-87
2023/10/24 00:02:39;;;;;;;1.40;1.30;;;;;;;;;;5068979;28;20028;-86
2023/10/24 00:05:06;;;;;;;2.97;1.17;;;15.30;99.90;;;;;;5068945;28;20033;-87
2023/10/24 00:07:32;;;;;;;2.03;1.52;;;;;;;;;;5069537;28;20366;-86
2023/10/24 00:09:58;;;;;;;6.95;1.40;;;;;;;;;;5068967;28;20064;-86
2023/10/24 00:12:24;;;;;;;2.38;1.17;;;;;;;;;;5068365;28;20416;-87
2023/10/24 00:14:50;;;;;;;2.85;1.40;;;;;;;;;;5068890;28;20036;-87
2023/10/24 00:17:16;;;;;;;1.65;1.02;;;;;;;;;;5068522;28;20024;-87
2023/10/24 00:19:42;;;;;;;2.28;1.58;;;;;;;;;;5068622;28;20048;-86
2023/10/24 00:22:08;;;;;;;2.08;0.93;;;;;;;;;;5068663;28;20043;-86
2023/10/24 00:24:34;;;;;;;3.10;0.95;;;;;;;;;;5068415;28;20035;-86
2023/10/24 00:27:00;;;;;;;1.20;0.82;;;;;;;;;;5068571;28;20035;-84
2023/10/24 00:29:26;;;;;;;2.22;0.88;;;;;;;;;;5068740;28;20029;-86
2023/10/24 00:31:52;;;;;;;1.52;0.90;;;;;;;;;;5068576;28;20024;-86
2023/10/24 00:34:18;;;;;;;0.77;0.65;;;;;;;;;;5068332;28;20047;-86
2023/10/24 00:36:44;;;;;;;3.35;0.70;;;;;;;;;;5068879;28;20043;-86
2023/10/24 00:39:10;;;;;;;1.98;0.80;;;;;;;;;;5070581;28;20547;-86
2023/10/24 00:41:36;;;;;;;1.52;0.93;;;;;;;;;;5072047;28;20067;-86
2023/10/24 00:44:02;;;;;;;7.18;0.93;;;;;;;;;;5072057;28;20477;-85
2023/10/24 00:46:29;;;;;;;1.75;0.90;;;;;;;;;;5070940;28;20393;-86
2023/10/24 00:48:55;;;;;;;3.72;1.25;;;14.70;99.90;;;;;;5072089;28;20033;-85
2023/10/24 00:51:21;;;;;;;1.25;0.70;;;;;;;;;;5070495;28;20214;-86
2023/10/24 00:53:49;;;;;;;1.77;0.70;;;14.60;99.90;;;;;;5071730;28;20392;-86
2023/10/24 00:56:15;;;;;;;;;;;14.70;99.90;;;;;;5072928;28;20032;-86
2023/10/24 00:58:41;;;;;;;1.48;0.70;;;14.60;99.90;;;;;;5073555;28;19908;-86
2023/10/24 01:01:11;;;;;;;2.10;0.90;;;14.40;99.90;;;;;;5072043;28;20051;-86
2023/10/24 01:03:38;;;;;;;0.85;0.70;;;;;;;;;;5071711;28;20357;-86
2023/10/24 01:06:05;;;;;;;0.80;0.50;;;14.50;99.90;;;;;;5072580;28;20016;-86
2023/10/24 01:08:31;;;;;;;;;;;14.60;99.90;;;;;;5072001;28;20059;-87
2023/10/24 01:10:57;;;;;;;2.65;0.60;;;;;;;;;;5072020;28;19982;-86
2023/10/24 01:13:23;;;;;;;1.40;0.80;;;;;;;;;;5071627;28;20017;-86
2023/10/24 01:15:49;;;;;;;2.08;0.90;;;;;;;;;;5071491;28;20617;-86
2023/10/24 01:18:15;;;;;;;1.95;0.93;;;;;;;;;;5071508;28;20013;-86
2023/10/24 01:20:41;;;;;;;4.00;1.13;;;;;;;;;;5071213;28;20048;-86
2023/10/24 01:23:10;;;;;;;8.88;1.00;;;14.60;99.90;;;;;;5071173;28;20013;-86
2023/10/24 01:25:41;;;;;;;1.38;0.60;;;14.50;99.90;;;;;;5072043;28;20043;-87
2023/10/24 01:28:07;;;;;;;3.42;0.90;;;;;;;;;;5070904;28;20024;-86
2023/10/24 01:30:34;;;;;;;1.30;0.88;;;14.60;99.90;;;;;;5071688;28;20036;-86
2023/10/24 01:33:00;;;;;;;1.13;1.02;;;;;;;;;;5069968;28;20045;-86
2023/10/24 01:35:26;;;;;;;1.95;0.98;;;;;;;;;;5071377;28;20036;-86
2023/10/24 01:37:52;;;;;;;1.88;0.65;;;;;;;;;;5070758;28;20020;-86
2023/10/24 01:40:18;;;;;;;1.02;0.63;;;;;;;;;;5071376;28;20081;-86
2023/10/24 01:42:44;;;;;;;1.02;0.70;;;;;;;;;;5071269;28;20512;-86
2023/10/24 01:45:10;;;;;;;1.42;0.93;;;;;;;;;;5071278;28;20081;-85
2023/10/24 01:47:36;;;;;;;0.80;0.77;;;;;;;;;;5067603;28;20032;-86
2023/10/24 01:50:03;;;;;;;2.72;0.95;;;;;;;;;;5066412;28;20578;-85
2023/10/24 01:52:29;;;;;;;2.42;1.92;;;;;;;;;;5070585;28;20111;-86
2023/10/24 01:54:55;;;;;;;1.15;0.95;;;;;;;;;;5071123;28;20020;-85
2023/10/24 01:57:21;;;;;;;4.03;1.05;;;;;;;;;;5069737;28;20024;-86
2023/10/24 01:59:47;;;;;;;4.65;0.95;;;;;;;;;;5070285;28;20504;-85
2023/10/24 02:02:13;;;;;;;1.83;1.00;;;;;;;;;;5070988;28;20021;-85
2023/10/24 02:04:39;;;;;;;2.42;0.80;;;;;;;;;;5071077;28;20465;-85
2023/10/24 02:07:05;;;;;;;4.70;1.10;;;;;;;;;;5069331;28;20027;-85
2023/10/24 02:09:31;;;;;;;3.35;1.10;;;;;;;;;;5071025;28;20028;-85
2023/10/24 02:12:03;;;;;;;1.42;0.77;;;14.50;99.90;;;;;;5070026;28;20013;-85
2023/10/24 02:14:29;;;;;;;4.10;0.82;;;14.50;99.90;;;;;;5071045;28;20035;-85
2023/10/24 02:16:55;;;;;;;3.42;0.85;;;;;;;;;;5070230;28;20017;-85
2023/10/24 02:19:21;;;;;;;1.30;0.68;;;;;;;;;;5070521;28;20094;-85
2023/10/24 02:21:47;;;;;;;1.38;0.98;;;;;;;;;;5069310;28;20013;-85
2023/10/24 02:24:13;;;;;;;2.03;0.70;;;;;;;;;;5069101;28;20145;-85
2023/10/24 02:26:39;;;;;;;1.70;0.85;;;;;;;;;;5070119;28;20030;-85
2023/10/24 02:29:05;;;;;;;4.20;1.25;;;;;;;;;;5070389;28;20062;-85
2023/10/24 02:31:31;;;;;;;3.15;1.13;;;;;;;;;;5070620;28;20453;-86
2023/10/24 02:33:57;;;;;;;0.95;0.77;;;;;;;;;;5070223;28;20043;-85
2023/10/24 02:36:23;;;;;;;0.82;0.65;;;;;;;;;;5069777;28;20099;-85
2023/10/24 02:38:49;;;;;;;0.95;0.85;;;;;;;;;;5069823;28;20059;-85
2023/10/24 02:41:15;;;;;;;1.30;0.80;;;;;;;;;;5070436;28;20500;-85
2023/10/24 02:43:41;;;;;;;9.23;1.13;;;;;;;;;;5069702;28;20056;-86
2023/10/24 02:46:07;;;;;;;1.13;1.02;;;;;;;;;;5070650;28;20063;-86
2023/10/24 02:48:34;;;;;;;0.85;0.80;;;;;;;;;;5069739;28;20120;-85
2023/10/24 02:51:00;;;;;;;7.28;0.80;;;;;;;;;;5072246;28;20029;-86
2023/10/24 02:53:26;;;;;;;0.90;0.88;;;;;;;;;;5068796;28;20043;-86
2023/10/24 02:55:52;;;;;;;1.23;0.85;;;;;;;;;;5069894;28;20028;-86
2023/10/24 02:58:18;;;;;;;4.90;1.30;;;14.40;99.90;;;;;;5068594;28;20028;-86
2023/10/24 03:00:45;;;;;;;1.15;0.95;;;14.40;99.90;;;;;;5068500;28;20082;-87
2023/10/24 03:03:12;;;;;;;2.00;1.00;;;14.30;99.90;;;;;;5068711;28;20025;-86
2023/10/24 03:05:38;;;;;;;1.50;1.40;;;;;;;;;;5069741;28;20032;-86
2023/10/24 03:08:05;;;;;;;0.95;0.82;;;14.10;99.90;;;;;;5069176;28;20496;-87
2023/10/24 03:10:31;;;;;;;0.82;0.82;;;;;;;;;;5069684;28;20058;-86
2023/10/24 03:12:57;;;;;;;3.15;2.85;;;;;;;;;;5069236;28;20028;-87
2023/10/24 03:15:23;;;;;;;3.13;0.82;;;;;;;;;;5069731;28;20027;-86
2023/10/24 03:17:49;;;;;;;1.30;0.95;;;;;;;;;;5068957;28;20254;-86
2023/10/24 03:20:15;;;;;;;1.25;0.90;;;;;;;;;;5069328;28;20050;-86
2023/10/24 03:22:41;;;;;;;2.05;1.08;;;;;;;;;;5067700;28;20047;-85
2023/10/24 03:25:08;;;;;;;6.53;0.80;;;;;;;;;;5069336;28;20516;-86
2023/10/24 03:27:34;;;;;;;1.05;0.93;;;;;;;;;;5069779;28;20104;-87
2023/10/24 03:30:00;;;;;;;1.20;0.85;;;;;;;;;;5069748;28;20479;-87
2023/10/24 03:32:29;;;;;;;1.88;0.77;;;14.00;99.90;;;;;;5069095;28;20047;-87
2023/10/24 03:34:56;;;;;;;1.10;0.73;;;14.30;99.90;;;;;;5069168;28;20400;-87
2023/10/24 03:37:22;;;;;;;0.73;0.73;;;;;;;;;;5069518;28;20033;-86
2023/10/24 03:39:48;;;;;;;4.82;1.33;;;;;;;;;;5069092;28;20508;-87
2023/10/24 03:42:14;;;;;;;0.93;0.82;;;;;;;;;;5069185;28;20024;-86
2023/10/24 03:44:41;;;;;;;3.00;0.98;;;10.30;99.90;;;;;;5069346;28;20044;-86
2023/10/24 03:47:07;;;;;;;1.00;0.90;;;;;;;;;;5068460;28;20559;-86
2023/10/24 03:49:33;;;;;;;0.57;0.57;;;;;;;;;;5069405;28;20646;-87
2023/10/24 03:52:00;;;;;;;3.70;0.75;;;;;;;;;;5068637;28;20544;-87
2023/10/24 03:54:26;;;;;;;1.23;0.80;;;;;;;;;;5069111;28;20028;-87
2023/10/24 03:56:52;;;;;;;0.93;0.70;;;;;;;;;;5067751;28;20044;-87
2023/10/24 03:59:18;;;;;;;0.70;0.68;;;;;;;;;;5068984;28;20063;-87
2023/10/24 04:01:44;;;;;;;0.95;0.75;;;;;;;;;;5068909;28;20428;-87
2023/10/24 04:04:10;;;;;;;2.10;0.90;;;;;;;;;;5069067;28;20035;-86
2023/10/24 04:06:36;;;;;;;3.22;1.33;;;;;;;;;;5069259;28;20079;-87
2023/10/24 04:09:04;;;;;;;0.80;0.80;;;14.00;99.90;;;;;;5068557;28;20075;-87
2023/10/24 04:11:31;;;;;;;3.17;1.13;;;;;;;;;;5068829;28;20238;-86
2023/10/24 04:13:58;;;;;;;0.60;0.60;;;;;;;;;;5070442;28;20075;-86
2023/10/24 04:16:24;;;;;;;0.93;0.70;;;;;;;;;;5073261;28;20020;-86
2023/10/24 04:18:50;;;;;;;1.48;0.82;;;;;;;;;;5072652;28;20055;-86
2023/10/24 04:21:16;;;;;;;0.50;0.50;;;;;;;;;;5072565;28;20078;-86
2023/10/24 04:23:42;;;;;;;0.50;0.50;;;;;;;;;;5071942;28;20025;-86
2023/10/24 04:26:09;;;;;;;1.33;0.73;;;;;;;;;;5061047;28;20024;-87
2023/10/24 04:28:35;;;;;;;1.73;0.60;;;;;;;;;;5072479;28;20595;-86
2023/10/24 04:31:01;;;;;;;0.50;0.50;;;;;;;;;;5072743;28;20028;-86
2023/10/24 04:33:27;;;;;;;0.55;0.55;;;;;;;;;;5070503;28;20085;-86
2023/10/24 04:35:53;;;;;;;5.88;0.75;;;;;;;;;;5071218;28;20066;-86
2023/10/24 04:38:19;;;;;;;0.63;0.60;;;;;;;;;;5072701;28;20119;-86
2023/10/24 04:40:45;;;;;;;5.72;0.50;;;;;;;;;;5072256;28;20086;-86
2023/10/24 04:43:12;;;;;;;0.57;0.57;;;;;;;;;;5072269;28;20035;-86
2023/10/24 04:45:38;;;;;;;0.90;0.65;;;;;;;;;;5073085;28;20032;-86
2023/10/24 04:48:04;;;;;;;0.47;0.47;;;13.90;99.90;;;;;;5071702;28;20405;-86
2023/10/24 04:50:30;;;;;;;0.93;0.70;;;;;;;;;;5071953;28;20020;-86
2023/10/24 04:52:56;;;;;;;0.82;0.82;;;;;;;;;;5071908;28;20033;-86
2023/10/24 04:55:23;;;;;;;0.85;0.63;;;13.80;99.90;;;;;;5072200;28;20754;-86
2023/10/24 04:57:49;;;;;;;0.60;0.60;;;13.80;99.90;;;;;;5078183;28;20036;-86
2023/10/24 05:00:15;;;;;;;5.25;0.85;;;13.70;99.90;;;;;;5071925;28;20511;-86
2023/10/24 05:02:43;;;;;;;1.42;0.75;;;13.70;99.90;;;;;;5072374;28;20086;-87
2023/10/24 05:05:09;;;;;;;0.55;0.55;;;;;;;;;;5071630;28;20016;-86
2023/10/24 05:07:35;;;;;;;0.75;0.75;;;;;;;;;;5071752;28;20488;-86
2023/10/24 05:10:02;;;;;;;5.13;1.27;;;13.50;99.90;;;;;;5071887;28;20396;-86
2023/10/24 05:12:28;;;;;;;0.95;0.60;;;;;;;;;;5071572;28;20052;-86
2023/10/24 05:14:54;;;;;;;1.02;0.75;;;;;;;;;;5071781;28;20037;-86
2023/10/24 05:17:20;;;;;;;1.80;0.73;;;;;;;;;;5071272;28;20064;-86
2023/10/24 05:19:46;;;;;;;1.75;0.68;;;;;;;;;;5072603;28;20062;-86
2023/10/24 05:22:13;;;;;;;1.05;0.88;;;;;;;;;;5070901;28;20027;-87
2023/10/24 05:24:39;;;;;;;1.58;0.95;;;;;;;;;;5071596;28;20416;-88
2023/10/24 05:27:06;;;;;;;0.50;0.50;;;;;;;;;;5070663;28;20020;-87
2023/10/24 05:29:33;;;;;;;0.93;0.73;;;13.40;99.90;;;;;;5071390;28;20033;-85
2023/10/24 05:31:59;;;;;;;1.40;0.70;;;;;;;;;;5071379;28;20028;-86
2023/10/24 05:34:30;;;;;;;0.98;0.68;;;13.20;99.90;;;;;;5071143;28;20412;-87
2023/10/24 05:36:57;;;;;;;0.45;0.45;;;;;;;;;;5069984;28;20539;-84
2023/10/24 05:39:30;;;;;;;1.17;0.95;;;;;;;;;;5071707;28;20251;-86
2023/10/24 05:41:56;;;;;;;1.67;1.17;;;;;;;;;;5069681;28;20036;-84
2023/10/24 05:44:22;;;;;;;1.20;0.40;;;;;;;;;;5063287;28;20433;-86
2023/10/24 05:46:48;;;;;;;1.92;0.68;;;;;;;;;;5066524;28;20017;-87
2023/10/24 05:49:14;;;;;;;0.40;0.40;;;;;;;;;;5069047;28;20592;-85
2023/10/24 05:51:40;;;;;;;0.57;0.50;;;;;;;;;;5067132;28;20205;-86
2023/10/24 05:54:06;;;;;;;0.85;0.80;;;;;;;;;;5069324;28;20378;-86
2023/10/24 05:56:32;;;;;;;2.53;2.33;;;;;;;;;;5061234;28;20036;-86
2023/10/24 05:58:58;;;;;;;1.45;0.95;;;;;;;;;;5068201;28;20111;-85
2023/10/24 06:01:24;;;;;;;1.75;0.90;;;;;;;;;;5069364;28;20500;-86
2023/10/24 06:03:50;;;;;;;0.40;0.40;;;;;;;;;;5068056;28;20060;-86
2023/10/24 06:06:17;;;;;;;0.60;0.60;;;;;;;;;;5069311;28;20467;-86
2023/10/24 06:08:46;;;;;;;1.40;1.10;;;;;;;;;;5069186;28;20515;-86
2023/10/24 06:11:15;;;;;;;1.75;0.85;;;;;;;;;;5069037;28;20489;-86
2023/10/24 06:13:41;;;;;;;1.92;0.55;;;;;;;;;;5068985;28;20028;-85
2023/10/24 06:16:07;;;;;;;1.15;0.77;;;;;;;;;;5069389;28;20070;-86
2023/10/24 06:18:33;;;;;;;0.65;0.65;;;;;;;;;;5069404;28;20402;-86
2023/10/24 06:20:59;;;;;;;1.77;0.90;;;;;;;;;;5065154;28;20028;-86
2023/10/24 06:23:25;;;;;;;0.85;0.85;;;;;;;;;;5067989;28;20028;-86
2023/10/24 06:25:51;;;;;;;0.70;0.70;;;;;;;;;;5069013;28;20500;-86
2023/10/24 06:28:17;;;;;;;1.98;0.93;;;;;;;;;;5068702;28;20059;-86
2023/10/24 06:30:43;;;;;;;2.83;0.93;;;;;;;;;;5060126;28;20282;-85
2023/10/24 06:33:09;;;;;;;0.98;0.90;;;;;;;;;;5059856;28;20461;-87
2023/10/24 06:35:35;;;;;;;3.20;1.10;;;;;;;;;;5053793;28;20107;-86
2023/10/24 06:38:01;;;;;;;1.00;0.90;;;;;;;;;;5067121;28;20036;-82
2023/10/24 06:40:27;;;;;;;0.95;0.77;;;;;;;;;;5052917;28;20390;-82
2023/10/24 06:42:54;;;;;;;2.30;0.98;;;;;;;;;;5057300;28;20563;-83
2023/10/24 06:45:20;;;;;;;0.77;0.77;;;;;;;;;;5059223;28;20437;-82
2023/10/24 06:47:46;;;;;;;0.93;0.90;;;;;;;;;;5051122;28;20025;-82
2023/10/24 06:50:12;;;;;;;1.50;1.15;;;;;;;;;;5061831;28;20039;-79
2023/10/24 06:52:41;;;;;;;1.88;1.00;;;;;;;;;;5064401;28;20029;-79
2023/10/24 06:55:07;;;;;;;1.65;1.30;;;;;;;;;;5063328;28;20564;-79
2023/10/24 06:57:34;;;;;;;1.05;0.82;;;;;;;;;;5062064;28;20055;-81
2023/10/24 07:00:00;;;;;;;1.77;0.90;;;;;;;;;;5068445;28;20094;-82
2023/10/24 07:02:26;;;;;;;1.55;0.80;;;;;;;;;;5067574;28;20024;-81
2023/10/24 07:04:53;;;;;;;1.27;0.73;;;;;;;;;;5068384;28;20431;-81
2023/10/24 07:07:19;;;;;;;1.55;0.98;;;;;;;;;;5068101;28;20055;-81
2023/10/24 07:09:45;;;;;;;1.50;0.90;;;;;;;;;;5068578;28;20024;-82
2023/10/24 07:12:12;;;;;;;0.98;0.75;;;;;;;;;;5067515;28;20059;-82
2023/10/24 07:14:38;;;;;;;1.15;0.90;;;13.50;99.90;;;;;;5067997;28;20009;-80
2023/10/24 07:17:04;;;;;;;0.70;0.70;;;;;;;;;;5067927;28;20063;-82
2023/10/24 07:19:30;;;;;;;1.13;0.80;;;14.00;99.90;;;;;;5065382;28;20064;-81
2023/10/24 07:21:56;;;;;;;0.95;0.80;;;;;;;;;;5061836;28;20078;-80
2023/10/24 07:24:22;;;;;;;1.30;1.08;;;;;;;;;;5067857;28;20039;-80
2023/10/24 07:26:48;;;;;;;10.52;1.05;;;;;;;;;;5067093;28;20039;-81
2023/10/24 07:29:14;;;;;;;6.85;1.13;;;;;;;;;;5067542;28;20020;-81
2023/10/24 07:31:40;;;;;;;0.70;0.70;;;;;;;;;;5065242;28;20029;-80
2023/10/24 07:34:06;;;;;;;1.45;0.82;;;;;;;;;;5067040;28;20036;-81
2023/10/24 07:36:32;;;;;;;1.17;0.80;;;;;;;;;;5068291;28;20035;-80
2023/10/24 07:39:00;;;;;;;0.82;0.80;;;15.30;99.90;;;;;;5067924;28;20021;-80
2023/10/24 07:41:26;;;;;;;0.88;0.63;;;;;;;;;;5067372;28;20037;-79
2023/10/24 07:43:52;;;;;;;1.35;1.25;;;;;;;;;;5066777;28;20279;-80
2023/10/24 07:46:18;;;;;;;1.42;0.60;;;;;;;;;;5059253;28;20359;-80
2023/10/24 07:48:44;;;;;;;1.30;0.80;;;;;;;;;;5053858;28;20445;-81
2023/10/24 07:51:11;;;;;;;0.50;0.50;;;;;;;;;;5067411;28;20024;-82
2023/10/24 07:53:37;;;;;;;2.45;0.70;;;15.00;99.90;;;;;;5064121;28;20020;-83
2023/10/24 07:56:05;;;;;;;0.40;0.40;;;15.00;99.90;;;;;;5067656;28;20465;-83
2023/10/24 07:58:31;;;;;;;0.75;0.60;;;;;;;;;;5066502;28;20028;-83
2023/10/24 08:00:57;;;;;;;2.38;0.73;;;;;;;;;;5056097;28;20047;-83
2023/10/24 08:03:23;;;;;;;1.85;0.73;;;;;;;;;;5061273;28;20029;-83
2023/10/24 08:05:50;;;;;;;1.02;0.80;;;;;;;;;;5061725;28;20050;-79
2023/10/24 08:08:16;;;;;;;1.92;1.05;;;;;;;;;;5065828;28;20063;-78
2023/10/24 08:10:42;;;;;;;2.28;1.13;;;;;;;;;;5061697;28;20081;-82
2023/10/24 08:13:08;;;;;;;1.90;1.00;;;;;;;;;;5065637;28;20051;-82
2023/10/24 08:15:35;;;;;;;2.72;1.05;;;;;;;;;;5067719;28;20031;-81
2023/10/24 08:18:01;;;;;;;1.67;1.13;;;;;;;;;;5063202;28;20161;-81
2023/10/24 08:20:27;;;;;;;3.30;2.22;;;;;;;;;;5053185;28;20044;-78
2023/10/24 08:22:53;;;;;;;3.45;1.50;;;;;;;;;;5062384;28;20025;-80
2023/10/24 08:25:19;;;;;;;1.77;1.63;;;;;;;;;;5060612;28;20024;-78
2023/10/24 08:27:45;;;;;;;1.50;1.38;;;;;;;;;;5064142;28;20056;-79
2023/10/24 08:30:11;;;;;;;2.72;1.83;;;15.50;99.90;;;;;;5067055;28;20027;-78
2023/10/24 08:32:37;;;;;;;3.83;1.45;;;;;;;;;;5060023;28;20130;-79
2023/10/24 08:35:03;;;;;;;1.20;1.10;;;;;;;;;;5056154;28;20422;-79
2023/10/24 08:37:30;;;;;;;2.10;1.20;;;;;;;;;;5066230;28;20035;-79
2023/10/24 08:39:56;;;;;;;1.92;1.65;;;;;;;;;;5062609;28;20036;-80
2023/10/24 08:42:22;;;;;;;4.07;1.63;;;;;;;;;;5067206;28;20575;-79
2023/10/24 08:44:49;;;;;;;3.83;1.38;;;16.90;99.90;;;;;;5064547;28;20497;-79
2023/10/24 08:47:15;;;;;;;1.90;1.58;;;;;;;;;;5058472;28;20093;-80
2023/10/24 08:49:41;;;;;;;2.92;1.75;;;;;;;;;;5063294;28;20029;-80
2023/10/24 08:52:07;;;;;;;2.33;1.45;;;;;;;;;;5064239;28;20028;-80
2023/10/24 08:54:33;;;;;;;3.10;1.95;;;;;;;;;;5064355;28;20029;-78
2023/10/24 08:57:02;;;;;;;3.08;1.98;;;17.60;96.90;;;;;;5066454;28;20487;-78
2023/10/24 08:59:31;;;;;;;1.98;0.95;;;17.50;97.20;;;;;;5062351;28;20070;-79
2023/10/24 09:01:57;;;;;;;2.65;1.13;;;;;;;;;;5070862;28;20388;-78
2023/10/24 09:04:23;;;;;;;1.42;1.05;;;;;;;;;;5061352;28;20028;-78
2023/10/24 09:06:50;;;;;;;1.35;0.98;;;;;;;;;;5059439;28;20042;-79
2023/10/24 09:09:16;;;;;;;0.70;0.70;;;;;;;;;;5058212;28;20033;-83
2023/10/24 09:12:02;;;;;;;0.85;0.55;;;19.00;94.60;;;;;;5063184;28;20263;-80
2023/10/24 09:14:29;;;;;;;4.75;1.00;;;18.10;94.00;;;;;;5065267;28;20024;-81
2023/10/24 09:16:58;;;;;;;1.05;0.75;;;17.90;94.30;;;;;;5058778;28;20052;-81
2023/10/24 09:19:24;;;;;;;2.50;0.95;;;;;;;;;;5069297;28;20036;-80
2023/10/24 09:21:51;;;;;;;2.20;1.05;;;;;;;;;;5071109;28;20056;-80
2023/10/24 09:24:17;;;;;;;0.40;0.40;;;;;;;;;;5083315;28;20055;-80
2023/10/24 09:26:55;;;;;;;0.60;0.60;;;17.30;96.30;;;;;;5068360;28;20492;-81
2023/10/24 09:29:21;;;;;;;1.17;0.90;;;;;;;;;;5061629;28;20116;-81
2023/10/24 09:31:48;;;;;;;4.80;0.70;;;17.40;94.90;;;;;;5058575;28;20025;-80
2023/10/24 09:34:18;;;;;;;1.80;0.60;;;17.50;95.60;;;;;;5063359;28;20063;-80
2023/10/24 09:36:44;;;;;;;0.85;0.60;;;17.40;93.90;;;;;;5061630;28;20056;-80
2023/10/24 09:39:14;;;;;;;0.77;0.70;;;17.40;93.90;;;;;;5069606;28;20024;-81
2023/10/24 09:41:49;;;;;;;1.70;0.60;;;17.60;94.20;;;;;;5075218;28;20111;-79
2023/10/24 09:44:15;;;;;;;0.70;0.70;;;;;;;;;;5070164;28;20020;-79
2023/10/24 09:46:41;;;;;;;1.45;0.70;;;;;;;;;;5057444;28;20099;-80
2023/10/24 09:49:08;;;;;;;0.60;0.60;;;;;;;;;;5071559;28;20092;-80
2023/10/24 09:51:37;;;;;;;1.10;0.80;;;19.60;85.30;;;;;;5058579;28;20445;-80
2023/10/24 09:54:06;;;;;;;0.68;0.50;;;20.40;79.60;;;;;;5070581;28;20028;-81
2023/10/24 09:56:32;;;;;;;1.33;0.60;;;20.40;76.00;;;;;;5072054;28;20074;-80
2023/10/24 09:58:58;;;;;;;1.88;0.60;;;20.10;89.00;;;;;;5071657;28;20527;-80
2023/10/24 10:01:27;;;;;;;1.33;0.90;;;19.60;76.10;;;;;;5071096;28;20041;-80
2023/10/24 10:03:58;;;;;;;1.10;0.68;;;19.20;80.10;;;;;;5074082;28;20029;-79
2023/10/24 10:06:27;;;;;;;0.55;0.55;;;19.10;81.60;;;;;;5057770;28;20514;-80
2023/10/24 10:09:00;;;;;;;0.52;0.43;;;19.30;81.20;;;;;;5068342;28;20017;-80
2023/10/24 10:11:31;;;;;;;0.55;0.40;;;20.10;77.70;;;;;;5065179;28;20483;-80
2023/10/24 10:14:07;;;;;;;1.08;0.50;;;20.30;76.00;;;;;;5057594;28;20155;-81
2023/10/24 10:17:09;;;;;;;2.47;0.85;;;19.60;84.30;;;;;;5058402;28;20046;-81
2023/10/24 10:19:52;;;;;;;0.40;0.40;;;18.90;78.50;;;;;;5069427;28;20099;-80
2023/10/24 10:22:43;;;;;;;0.82;0.50;;;18.20;87.70;;;;;;5059223;28;20501;-81
2023/10/24 10:25:20;;;;;;;0.55;0.30;;;17.60;86.60;;;;;;5069716;28;20032;-81
2023/10/24 10:28:14;;;;;;;1.33;1.17;;;17.40;89.30;;;;;;5069280;28;20036;-81
2023/10/24 10:30:55;;;;;;;0.50;0.50;;;18.30;85.10;;;;;;5058657;28;20112;-80
2023/10/24 10:33:24;;;;;;;1.85;0.60;;;19.60;76.30;;;;;;5067000;28;20056;-80
2023/10/24 10:36:02;;;;;;;1.25;1.15;;;20.40;70.80;;;;;;5069292;28;20024;-80
2023/10/24 10:38:47;;;;;;;1.42;1.33;;;20.90;81.30;;;;;;5070607;28;20059;-78
2023/10/24 10:41:21;;;;;;;0.30;0.30;;;20.50;77.80;;;;;;5061132;28;20404;-80
2023/10/24 10:43:47;;;;;;;0.32;0.32;;;;;;;;;;5068822;28;20013;-79
2023/10/24 10:46:22;;;;;;;0.68;0.40;;;19.50;66.40;;;;;;5069745;28;20025;-80
2023/10/24 10:48:48;;;;;;;0.65;0.65;;;;;;;;;;5069519;28;20071;-81
2023/10/24 10:51:24;;;;;;;0.77;0.50;;;18.80;70.90;;;;;;5069343;28;20024;-81
2023/10/24 10:54:12;;;;;;;0.30;0.30;;;18.90;72.90;;;;;;5071654;28;20020;-79
2023/10/24 10:56:39;;;;;;;0.68;0.65;;;18.70;72.60;;;;;;5067002;28;20016;-80
2023/10/24 10:59:08;;;;;;;0.40;0.40;;;18.40;71.80;;;;;;5069321;28;20039;-80
2023/10/24 11:01:34;;;;;;;0.40;0.40;;;;;;;;;;5062881;28;20115;-80
2023/10/24 11:04:00;;;;;;;0.75;0.50;;;;;;;;;;5068355;28;20162;-79
2023/10/24 11:06:27;;;;;;;0.85;0.40;;;16.90;79.80;;;;;;5069039;28;20033;-79
2023/10/24 11:09:35;;;;;;;0.80;0.50;;;17.10;82.60;;;;;;5064404;28;20032;-80
2023/10/24 11:12:28;;;;;;;0.50;0.50;;;17.30;81.90;;;;;;5025612;28;20132;-80
2023/10/24 11:15:13;;;;;;;0.70;0.70;;;17.40;81.60;;;;;;5026127;28;20040;-80
2023/10/24 11:17:39;;;;;;;0.80;0.80;;;;;;;;;;5020548;28;20308;-79
2023/10/24 11:20:05;;;;;;;7.10;0.60;;;;;;;;;;5025229;28;20530;-80
2023/10/24 11:22:32;;;;;;;0.82;0.50;;;17.70;78.60;;;;;;5025177;28;20045;-79
2023/10/24 11:24:58;;;;;;;1.15;0.50;;;17.50;78.40;;;;;;5025032;28;20504;-80
2023/10/24 11:27:24;;;;;;;0.30;0.30;;;;;;;;;;5025534;28;20045;-80
2023/10/24 11:29:50;;;;;;;1.20;0.40;;;;;;;;;;5029691;28;20021;-80
2023/10/24 11:32:19;;;;;;;0.50;0.50;;;18.00;79.10;;;;;;5026606;28;20580;-79
2023/10/24 11:34:46;;;;;;;0.30;0.30;;;19.30;78.50;;;;;;5025451;28;20037;-78
2023/10/24 11:37:12;;;;;;;0.30;0.30;;;;;;;;;;5024547;28;20025;-79
2023/10/24 11:39:42;;;;;;;0.40;0.40;;;17.90;77.70;;;;;;5025331;28;20037;-79
2023/10/24 11:42:08;;;;;;;1.77;0.50;;;;;;;;;;5025559;28;20033;-80
2023/10/24 11:44:34;;;;;;;0.30;0.30;;;;;;;;;;5024810;28;20041;-83
2023/10/24 11:47:02;;;;;;;0.40;0.40;;;;;;;;;;5031746;28;20390;-82
2023/10/24 11:49:36;;;;;;;0.55;0.40;;;17.00;81.20;;;;;;5055640;28;20021;-80
2023/10/24 11:52:02;;;;;;;0.30;0.30;;;;;;;;;;5062920;28;20596;-81
2023/10/24 11:54:29;;;;;;;0.50;0.50;;;;;;;;;;5067373;28;20088;-81
2023/10/24 11:56:55;;;;;;;0.88;0.88;;;;;;;;;;5067984;28;20032;-81
2023/10/24 11:59:21;;;;;;;0.75;0.75;;;;;;;;;;5065385;28;20031;-80
2023/10/24 12:01:47;;;;;;;0.40;0.40;;;;;;;;;;5067612;28;20044;-81
2023/10/24 12:04:13;;;;;;;2.92;1.08;;;;;;;;;;5068077;28;20097;-81
2023/10/24 12:06:39;;;;;;;3.03;0.63;;;;;;;;;;5067979;28;20580;-82
2023/10/24 12:09:06;;;;;;;2.33;0.70;;;;;;;;;;5067726;28;20025;-82
2023/10/24 12:11:35;;;;;;;1.27;0.70;;;18.30;77.00;;;;;;5067893;28;20036;-80
2023/10/24 12:14:02;;;;;;;0.40;0.40;;;18.50;76.80;;;;;;5066193;28;20741;-80
2023/10/24 12:16:31;;;;;;;1.88;0.70;;;18.50;90.10;;;;;;5067819;28;20031;-80
2023/10/24 12:18:58;;;;;;;1.30;0.70;;;;;;;;;;5066665;28;20028;-82
2023/10/24 12:21:24;;;;;;;3.53;0.90;;;;;;;;;;5067289;28;20036;-82
2023/10/24 12:23:50;;;;;;;1.67;1.05;;;;;;;;;;5067379;28;20032;-81
2023/10/24 12:26:16;;;;;;;0.90;0.90;;;;;;;;;;5067760;28;20028;-81
2023/10/24 12:28:45;;;;;;;0.82;0.70;;;20.40;84.20;;;;;;5067743;28;20029;-81
2023/10/24 12:31:11;;;;;;;0.60;0.60;;;;;;;;;;5067712;28;20870;-81
2023/10/24 12:33:38;;;;;;;3.50;0.50;;;;;;;;;;5067660;28;20059;-81
2023/10/24 12:36:06;;;;;;;4.18;0.73;;;;;;;;;;5060558;28;20020;-82
2023/10/24 12:38:33;;;;;;;0.55;0.55;;;;;;;;;;5071204;28;20032;-82
2023/10/24 12:40:59;;;;;;;0.83;0.80;;;;;;;;;;5071847;28;20150;-82
2023/10/24 12:43:25;;;;;;;0.90;0.90;;;;;;;;;;5071482;28;20023;-82
2023/10/24 12:45:51;;;;;;;0.88;0.70;;;20.00;71.20;;;;;;5070387;28;20458;-82
2023/10/24 12:48:17;;;;;;;0.85;0.70;;;;;;;;;;5070610;28;20032;-82
2023/10/24 12:50:43;;;;;;;0.45;0.45;;;19.60;79.80;;;;;;5069538;28;20029;-82
2023/10/24 12:53:09;;;;;;;0.50;0.50;;;;;;;;;;5070200;28;20523;-81
2023/10/24 12:55:35;;;;;;;0.73;0.45;;;;;;;;;;5069055;28;20039;-81
2023/10/24 12:58:01;;;;;;;0.95;0.40;;;;;;;;;;5066217;28;20025;-81
2023/10/24 13:00:27;;;;;;;1.15;0.80;;;;;;;;;;5068115;28;20492;-81
2023/10/24 13:02:56;;;;;;;0.40;0.40;;;;;;;;;;5070977;28;20017;-80
2023/10/24 13:05:22;;;;;;;0.57;0.40;;;;;;;;;;5071277;28;20033;-83
2023/10/24 13:07:48;;;;;;;0.55;0.45;;;;;;;;;;5070596;28;20032;-83
2023/10/24 13:10:15;;;;;;;0.30;0.30;;;;;;;;;;5070718;28;20028;-83
2023/10/24 13:12:41;;;;;;;0.32;0.32;;;;;;;;;;5070260;28;20024;-84
2023/10/24 13:15:08;;;;;;;0.30;0.30;;;;;;;;;;5069425;28;20047;-83
2023/10/24 13:17:34;;;;;;;1.00;0.73;;;;;;;;;;5070195;28;20021;-78
2023/10/24 13:20:00;;;;;;;0.45;0.35;;;;;;;;;;5069628;28;20464;-78
2023/10/24 13:22:26;;;;;;;0.30;0.30;;;;;;;;;;5071031;28;20028;-77
2023/10/24 13:24:52;;;;;;;0.60;0.50;;;20.50;75.90;;;;;;5070866;28;20059;-78
2023/10/24 13:27:18;;;;;;;0.30;0.30;;;20.50;67.00;;;;;;5070042;28;20078;-78
2023/10/24 13:29:44;;;;;;;0.40;0.40;;;;;;;;;;5070168;28;20028;-78
2023/10/24 13:32:10;;;;;;;0.40;0.40;;;;;;;;;;5070442;28;20033;-78
2023/10/24 13:34:36;;;;;;;0.35;0.35;;;;;;;;;;5070640;28;20086;-78
2023/10/24 13:37:02;;;;;;;0.60;0.30;;;20.40;73.50;;;;;;5070220;28;20024;-76
2023/10/24 13:39:28;;;;;;;1.67;0.43;;;;;;;;;;5070488;28;20027;-79
2023/10/24 13:41:54;;;;;;;0.40;0.30;;;;;;;;;;5069983;28;20083;-76
2023/10/24 13:44:20;;;;;;;0.40;0.40;;;;;;;;;;5069896;28;20508;-77
2023/10/24 13:46:47;;;;;;;0.40;0.40;;;20.40;60.70;;;;;;5069434;28;20131;-78
2023/10/24 13:49:12;;;;;;;0.40;0.40;;;;;;;;;;5069965;28;20047;-78
2023/10/24 13:51:39;;;;;;;0.90;0.40;;;;;;;;;;5069482;28;20453;-77
2023/10/24 13:54:05;;;;;;;0.35;0.32;;;;;;;;;;5069748;28;20100;-78
2023/10/24 13:56:32;;;;;;;0.50;0.50;;;20.10;65.70;;;;;;5068865;28;20064;-78
2023/10/24 13:58:58;;;;;;;0.50;0.40;;;;;;;;;;5069309;28;20033;-79
2023/10/24 14:01:24;;;;;;;1.65;0.60;;;;;;;;;;5070299;28;20294;-78
2023/10/24 14:03:51;;;;;;;0.98;0.50;;;;;;;;;;5069312;28;20029;-78
2023/10/24 14:06:17;;;;;;;0.30;0.30;;;;;;;;;;5067639;28;20032;-78
2023/10/24 14:08:43;;;;;;;1.13;0.40;;;;;;;;;;5069503;28;20085;-78